Time,TemperatureF,DewpointF,PressureIn,WindDirection,WindDirectionDegrees,WindSpeedMPH,WindSpeedGustMPH,Humidity,HourlyPrecipIn,Conditions,Clouds,dailyrainin,SoftwareType,DateUTC
2013-07-20 00:01:00,74.1,66.4,29.83,NE,51,1.2,1.2,77,0.00,CLR,SKC,0.00,WeatherDisplay:10.37,2013-07-20 05:01:00,
2013-07-20 00:06:00,74.0,66.3,29.82,NE,51,2.3,2.3,77,0.00,CLR,SKC,0.00,WeatherDisplay:10.37,2013-07-20 05:06:00,
2013-07-20 00:11:00,73.8,66.1,29.82,North,4,1.2,1.2,77,0.00,CLR,SKC,0.00,WeatherDisplay:10.37,2013-07-20 05:11:00,
2013-07-20 00:16:00,73.7,66.0,29.82,North,9,1.2,1.2,77,0.00,CLR,SKC,0.00,WeatherDisplay:10.37,2013-07-20 05:16:00,
2013-07-20 00:21:00,73.7,66.0,29.82,North,352,1.2,1.2,77,0.00,CLR,SKC,0.00,WeatherDisplay:10.37,2013-07-20 05:21:00,
2013-07-20 00:26:00,73.7,66.0,29.82,NNW,342,0.0,0.0,77,0.00,CLR,SKC,0.00,WeatherDisplay:10.37,2013-07-20 05:26:00,
2013-07-20 00:31:00,73.4,65.4,29.83,NNW,342,0.0,0.0,76,0.00,CLR,SKC,0.00,WeatherDisplay:10.37,2013-07-20 05:31:00,
2013-07-20 00:36:00,73.3,65.3,29.83,NNW,342,0.0,0.0,76,0.00,CLR,SKC,0.00,WeatherDisplay:10.37,2013-07-20 05:36:00,
2013-07-20 00:41:00,73.3,65.3,29.83,NNW,342,0.0,0.0,76,0.00,CLR,SKC,0.00,WeatherDisplay:10.37,2013-07-20 05:41:00,
2013-07-20 00:46:00,73.2,64.8,29.83,NNW,342,0.0,0.0,75,0.00,CLR,SKC,0.00,WeatherDisplay:10.37,2013-07-20 05:46:00,
2013-07-20 00:51:00,73.3,64.5,29.83,NNW,342,0.0,0.0,74,0.00,CLR,SKC,0.00,WeatherDisplay:10.37,2013-07-20 05:51:00,
2013-07-20 00:56:00,73.3,64.5,29.84,NNW,342,0.0,0.0,74,0.00,CLR,SKC,0.00,WeatherDisplay:10.37,2013-07-20 05:56:00,
2013-07-20 01:01:00,73.2,64.4,29.84,NNW,342,0.0,0.0,74,0.00,CLR,SKC,0.00,WeatherDisplay:10.37,2013-07-20 06:01:00,
2013-07-20 01:06:00,72.9,63.7,29.84,NNW,342,0.0,0.0,73,0.00,CLR,SKC,0.00,WeatherDisplay:10.37,2013-07-20 06:06:00,
2013-07-20 01:11:00,72.8,63.6,29.84,NNW,342,0.0,0.0,73,0.00,CLR,SKC,0.00,WeatherDisplay:10.37,2013-07-20 06:11:00,
2013-07-20 01:16:00,72.5,63.4,29.84,NNW,342,0.0,0.0,73,0.00,CLR,SKC,0.00,WeatherDisplay:10.37,2013-07-20 06:16:00,
2013-07-20 01:21:00,72.2,63.4,29.84,NNW,342,0.0,0.0,74,0.00,CLR,SKC,0.00,WeatherDisplay:10.37,2013-07-20 06:21:00,
2013-07-20 01:26:00,71.9,63.2,29.83,NNW,342,0.0,0.0,74,0.00,CLR,SKC,0.00,WeatherDisplay:10.37,2013-07-20 06:26:00,
2013-07-20 01:31:00,71.9,63.2,29.83,NNW,343,0.0,0.0,74,0.00,CLR,SKC,0.00,WeatherDisplay:10.37,2013-07-20 06:31:00,
2013-07-20 01:36:00,72.0,62.9,29.84,NNW,342,1.2,0.0,73,0.00,CLR,SKC,0.00,WeatherDisplay:10.37,2013-07-20 06:36:00,
2013-07-20 01:42:00,72.2,63.1,29.84,ENE,68,0.0,0.0,73,0.00,CLR,SKC,0.00,WeatherDisplay:10.37,2013-07-20 06:42:00,
2013-07-20 01:47:00,72.3,63.2,29.84,ENE,68,0.0,0.0,73,0.00,CLR,SKC,0.00,WeatherDisplay:10.37,2013-07-20 06:47:00,
2013-07-20 01:52:00,72.4,62.9,29.83,NNE,33,1.2,1.2,72,0.00,CLR,SKC,0.00,WeatherDisplay:10.37,2013-07-20 06:52:00,
2013-07-20 01:57:00,72.5,62.6,29.83,North,354,1.2,1.2,71,0.00,CLR,SKC,0.00,WeatherDisplay:10.37,2013-07-20 06:57:00,
2013-07-20 02:02:00,72.7,62.3,29.83,North,351,0.0,0.0,70,0.00,CLR,SKC,0.00,WeatherDisplay:10.37,2013-07-20 07:02:00,
2013-07-20 02:07:00,72.7,62.3,29.83,North,354,2.3,2.3,70,0.00,CLR,SKC,0.00,WeatherDisplay:10.37,2013-07-20 07:07:00,
2013-07-20 02:12:00,72.8,61.6,29.83,NW,309,2.3,2.3,68,0.00,CLR,SKC,0.00,WeatherDisplay:10.37,2013-07-20 07:12:00,
2013-07-20 02:17:00,72.9,61.7,29.83,North,9,3.5,3.5,68,0.00,CLR,SKC,0.00,WeatherDisplay:10.37,2013-07-20 07:17:00,
2013-07-20 02:22:00,72.9,61.7,29.83,North,352,1.2,1.2,68,0.00,CLR,SKC,0.00,WeatherDisplay:10.37,2013-07-20 07:22:00,
2013-07-20 02:27:00,72.8,61.6,29.83,NE,50,2.3,2.3,68,0.00,CLR,SKC,0.00,WeatherDisplay:10.37,2013-07-20 07:27:00,
2013-07-20 02:32:00,72.6,61.4,29.83,NNW,346,2.1,2.1,68,0.00,CLR,SKC,0.00,WeatherDisplay:10.37,2013-07-20 07:32:00,
2013-07-20 02:37:00,72.5,61.3,29.83,NNE,14,2.3,2.3,68,0.00,CLR,SKC,0.00,WeatherDisplay:10.37,2013-07-20 07:37:00,
2013-07-20 02:42:00,72.3,61.1,29.82,North,359,1.2,0.0,68,0.00,CLR,SKC,0.00,WeatherDisplay:10.37,2013-07-20 07:42:00,
2013-07-20 02:47:00,72.2,61.0,29.82,NNE,20,1.2,1.2,68,0.00,CLR,SKC,0.00,WeatherDisplay:10.37,2013-07-20 07:47:00,
2013-07-20 02:52:00,72.1,61.0,29.82,NW,322,0.0,0.0,68,0.00,CLR,SKC,0.00,WeatherDisplay:10.37,2013-07-20 07:52:00,
2013-07-20 02:57:00,72.1,61.0,29.83,SSE,153,2.1,2.1,68,0.00,CLR,SKC,0.00,WeatherDisplay:10.37,2013-07-20 07:57:00,
2013-07-20 03:02:00,72.1,61.0,29.83,SSE,158,3.5,3.5,68,0.00,CLR,SKC,0.00,WeatherDisplay:10.37,2013-07-20 08:02:00,
2013-07-20 03:07:00,71.8,61.1,29.83,SSE,160,1.2,1.2,69,0.00,CLR,SKC,0.00,WeatherDisplay:10.37,2013-07-20 08:07:00,
2013-07-20 03:12:00,71.2,60.9,29.83,SSE,158,0.0,0.0,70,0.00,CLR,SKC,0.00,WeatherDisplay:10.37,2013-07-20 08:12:00,
2013-07-20 03:17:00,70.7,61.2,29.83,SSE,158,0.0,0.0,72,0.00,CLR,SKC,0.00,WeatherDisplay:10.37,2013-07-20 08:17:00,
2013-07-20 03:22:00,70.5,61.0,29.83,SSE,158,0.0,0.0,72,0.00,CLR,SKC,0.00,WeatherDisplay:10.37,2013-07-20 08:22:00,
2013-07-20 03:27:00,70.5,61.0,29.83,SSE,158,0.0,0.0,72,0.00,CLR,SKC,0.00,WeatherDisplay:10.37,2013-07-20 08:27:00,
2013-07-20 03:32:00,70.1,61.0,29.83,SSE,158,0.0,0.0,73,0.00,CLR,SKC,0.00,WeatherDisplay:10.37,2013-07-20 08:32:00,
2013-07-20 03:37:00,69.7,61.0,29.83,SSE,158,0.0,0.0,74,0.00,CLR,SKC,0.00,WeatherDisplay:10.37,2013-07-20 08:37:00,
2013-07-20 03:42:00,69.5,61.2,29.83,SSE,158,0.0,0.0,75,0.00,CLR,SKC,0.00,WeatherDisplay:10.37,2013-07-20 08:42:00,
2013-07-20 03:47:00,69.1,61.2,29.83,SSE,152,0.0,0.0,76,0.00,CLR,SKC,0.00,WeatherDisplay:10.37,2013-07-20 08:47:00,
2013-07-20 03:52:00,68.9,61.0,29.82,SSE,152,0.0,0.0,76,0.00,CLR,SKC,0.00,WeatherDisplay:10.37,2013-07-20 08:52:00,
2013-07-20 03:57:00,68.8,60.9,29.82,SSE,152,0.0,0.0,76,0.00,CLR,SKC,0.00,WeatherDisplay:10.37,2013-07-20 08:57:00,
2013-07-20 04:02:00,68.9,61.0,29.82,SSE,156,1.2,1.2,76,0.00,CLR,SKC,0.00,WeatherDisplay:10.37,2013-07-20 09:02:00,
2013-07-20 04:07:00,69.0,61.1,29.82,NNW,335,0.0,0.0,76,0.00,CLR,SKC,0.00,WeatherDisplay:10.37,2013-07-20 09:07:00,
2013-07-20 04:12:00,69.0,61.1,29.82,North,350,2.1,2.1,76,0.00,CLR,SKC,0.00,WeatherDisplay:10.37,2013-07-20 09:12:00,
2013-07-20 04:17:00,69.2,61.3,29.82,North,11,0.0,0.0,76,0.00,CLR,SKC,0.00,WeatherDisplay:10.37,2013-07-20 09:17:00,
2013-07-20 04:22:00,69.4,61.1,29.82,ENE,75,3.2,3.2,75,0.00,CLR,SKC,0.00,WeatherDisplay:10.37,2013-07-20 09:22:00,
2013-07-20 04:27:00,69.9,61.2,29.82,NE,47,3.5,3.5,74,0.00,CLR,SKC,0.00,WeatherDisplay:10.37,2013-07-20 09:27:00,
2013-07-20 04:32:00,70.1,61.4,29.82,ENE,72,2.3,2.3,74,0.00,CLR,SKC,0.00,WeatherDisplay:10.37,2013-07-20 09:32:00,
2013-07-20 04:37:00,69.9,61.2,29.81,ENE,71,2.1,2.1,74,0.00,CLR,SKC,0.00,WeatherDisplay:10.37,2013-07-20 09:37:00,
2013-07-20 04:42:00,69.8,61.5,29.81,NE,43,2.1,2.1,75,0.00,CLR,SKC,0.00,WeatherDisplay:10.37,2013-07-20 09:42:00,
2013-07-20 04:47:00,69.5,61.2,29.81,ENE,60,2.3,2.3,75,0.00,CLR,SKC,0.00,WeatherDisplay:10.37,2013-07-20 09:47:00,
2013-07-20 04:52:00,69.4,61.5,29.80,NE,53,3.2,3.2,76,0.00,CLR,SKC,0.00,WeatherDisplay:10.37,2013-07-20 09:52:00,
2013-07-20 04:57:00,69.4,61.5,29.80,NE,44,1.2,1.2,76,0.00,CLR,SKC,0.00,WeatherDisplay:10.37,2013-07-20 09:57:00,
2013-07-20 05:02:00,69.2,61.3,29.81,ESE,106,1.2,1.2,76,0.00,CLR,SKC,0.00,WeatherDisplay:10.37,2013-07-20 10:02:00,
2013-07-20 05:07:00,69.1,61.2,29.81,ESE,105,0.0,0.0,76,0.00,CLR,SKC,0.00,WeatherDisplay:10.37,2013-07-20 10:07:00,
2013-07-20 05:12:00,69.1,61.2,29.82,SSW,204,2.3,2.3,76,0.00,CLR,SKC,0.00,WeatherDisplay:10.37,2013-07-20 10:12:00,
2013-07-20 05:17:00,68.9,61.4,29.82,SE,129,0.0,0.0,77,0.00,CLR,SKC,0.00,WeatherDisplay:10.37,2013-07-20 10:17:00,
2013-07-20 05:22:00,68.8,61.3,29.82,SE,129,0.0,0.0,77,0.00,CLR,SKC,0.00,WeatherDisplay:10.37,2013-07-20 10:22:00,
2013-07-20 05:27:00,68.7,61.2,29.82,SE,129,1.1,0.0,77,0.00,CLR,SKC,0.00,WeatherDisplay:10.37,2013-07-20 10:27:00,
2013-07-20 05:32:00,68.7,61.2,29.81,ESE,110,0.0,0.0,77,0.00,CLR,SKC,0.00,WeatherDisplay:10.37,2013-07-20 10:32:00,
2013-07-20 05:37:00,68.5,61.0,29.81,East,82,2.3,2.3,77,0.00,CLR,SKC,0.00,WeatherDisplay:10.37,2013-07-20 10:37:00,
2013-07-20 05:42:00,68.6,61.1,29.81,East,80,1.2,1.2,77,0.00,CLR,SKC,0.00,WeatherDisplay:10.37,2013-07-20 10:42:00,
2013-07-20 05:47:00,68.7,61.2,29.82,East,94,2.3,2.3,77,0.00,CLR,SKC,0.00,WeatherDisplay:10.37,2013-07-20 10:47:00,
2013-07-20 05:52:00,68.6,61.1,29.82,East,96,1.2,1.2,77,0.00,CLR,SKC,0.00,WeatherDisplay:10.37,2013-07-20 10:52:00,
2013-07-20 05:57:00,68.4,60.9,29.82,SSE,160,2.1,2.1,77,0.00,CLR,SKC,0.00,WeatherDisplay:10.37,2013-07-20 10:57:00,
2013-07-20 06:02:00,68.3,61.2,29.82,SSE,156,2.1,2.1,78,0.00,CLR,SKC,0.00,WeatherDisplay:10.37,2013-07-20 11:02:00,
2013-07-20 06:07:00,68.1,61.0,29.82,SSE,156,0.0,0.0,78,0.00,CLR,SKC,0.00,WeatherDisplay:10.37,2013-07-20 11:07:00,
2013-07-20 06:12:00,67.6,60.9,29.82,SSE,150,0.0,0.0,79,0.00,CLR,SKC,0.00,WeatherDisplay:10.37,2013-07-20 11:12:00,
2013-07-20 06:17:00,67.1,60.7,29.82,SSE,149,0.0,0.0,80,0.00,CLR,SKC,0.00,WeatherDisplay:10.37,2013-07-20 11:17:00,
2013-07-20 06:22:00,66.7,60.7,29.82,SSE,150,0.0,0.0,81,0.00,CLR,SKC,0.00,WeatherDisplay:10.37,2013-07-20 11:22:00,
2013-07-20 06:27:00,66.8,61.1,29.82,SSE,162,1.2,1.2,82,0.00,CLR,SKC,0.00,WeatherDisplay:10.37,2013-07-20 11:27:00,
2013-07-20 06:33:00,66.9,60.9,29.82,SSE,157,0.0,0.0,81,0.00,CLR,SKC,0.00,WeatherDisplay:10.37,2013-07-20 11:33:00,
2013-07-20 06:38:00,67.0,61.0,29.83,SSE,157,0.0,0.0,81,0.00,CLR,SKC,0.00,WeatherDisplay:10.37,2013-07-20 11:38:00,
2013-07-20 06:43:00,67.1,61.4,29.83,SE,143,0.0,0.0,82,0.00,CLR,SKC,0.00,WeatherDisplay:10.37,2013-07-20 11:43:00,
2013-07-20 06:48:00,67.6,61.6,29.83,SE,143,0.0,0.0,81,0.00,CLR,SKC,0.00,WeatherDisplay:10.37,2013-07-20 11:48:00,
2013-07-20 06:53:00,68.4,62.0,29.83,SE,141,0.0,0.0,80,0.00,CLR,SKC,0.00,WeatherDisplay:10.37,2013-07-20 11:53:00,
2013-07-20 06:58:00,69.0,61.9,29.83,SE,141,0.0,0.0,78,0.00,CLR,SKC,0.00,WeatherDisplay:10.37,2013-07-20 11:58:00,
2013-07-20 07:03:00,69.6,62.1,29.83,SE,141,0.0,0.0,77,0.00,CLR,SKC,0.00,WeatherDisplay:10.37,2013-07-20 12:03:00,
2013-07-20 07:08:00,70.5,62.6,29.83,SE,141,0.0,0.0,76,0.00,CLR,SKC,0.00,WeatherDisplay:10.37,2013-07-20 12:08:00,
2013-07-20 07:13:00,71.2,62.5,29.83,SE,141,0.0,0.0,74,0.00,CLR,SKC,0.00,WeatherDisplay:10.37,2013-07-20 12:13:00,
2013-07-20 07:18:00,71.2,62.5,29.83,SE,141,0.0,0.0,74,0.00,CLR,SKC,0.00,WeatherDisplay:10.37,2013-07-20 12:18:00,
2013-07-20 07:23:00,72.1,63.0,29.83,SE,131,0.0,0.0,73,0.00,CLR,SKC,0.00,WeatherDisplay:10.37,2013-07-20 12:23:00,
2013-07-20 07:28:00,72.6,63.1,29.83,SE,131,0.0,0.0,72,0.00,CLR,SKC,0.00,WeatherDisplay:10.37,2013-07-20 12:28:00,
2013-07-20 07:33:00,72.6,63.4,29.83,SE,131,0.0,0.0,73,0.00,CLR,SKC,0.00,WeatherDisplay:10.37,2013-07-20 12:33:00,
2013-07-20 07:38:00,72.5,63.4,29.83,ESE,120,1.1,0.0,73,0.00,CLR,SKC,0.00,WeatherDisplay:10.37,2013-07-20 12:38:00,
2013-07-20 07:43:00,72.7,63.1,29.82,East,96,2.3,2.3,72,0.00,CLR,SKC,0.00,WeatherDisplay:10.37,2013-07-20 12:43:00,
2013-07-20 07:48:00,72.8,62.8,29.82,ESE,107,4.6,4.6,71,0.00,CLR,SKC,0.00,WeatherDisplay:10.37,2013-07-20 12:48:00,
2013-07-20 07:53:00,73.1,63.5,29.82,ESE,116,1.2,1.2,72,0.00,CLR,SKC,0.00,WeatherDisplay:10.37,2013-07-20 12:53:00,
2013-07-20 07:58:00,73.3,62.9,29.82,East,86,4.6,4.6,70,0.00,CLR,SKC,0.00,WeatherDisplay:10.37,2013-07-20 12:58:00,
2013-07-20 08:03:00,73.6,63.6,29.82,ESE,122,2.3,2.3,71,0.00,CLR,SKC,0.00,WeatherDisplay:10.37,2013-07-20 13:03:00,
2013-07-20 08:08:00,74.2,63.4,29.82,ESE,122,4.2,4.2,69,0.00,CLR,SKC,0.00,WeatherDisplay:10.37,2013-07-20 13:08:00,
2013-07-20 08:13:00,74.7,64.3,29.83,East,101,3.5,3.5,70,0.00,CLR,SKC,0.00,WeatherDisplay:10.37,2013-07-20 13:13:00,
2013-07-20 08:18:00,75.2,63.9,29.83,East,95,5.8,5.8,68,0.00,CLR,SKC,0.00,WeatherDisplay:10.37,2013-07-20 13:18:00,
2013-07-20 08:23:00,75.5,63.8,29.83,ENE,72,6.9,6.9,67,0.00,CLR,SKC,0.00,WeatherDisplay:10.37,2013-07-20 13:23:00,
2013-07-20 08:28:00,75.7,63.1,29.83,East,98,8.5,8.5,65,0.00,CLR,SKC,0.00,WeatherDisplay:10.37,2013-07-20 13:28:00,
2013-07-20 08:33:00,76.1,63.5,29.83,SE,136,6.4,6.4,65,0.00,CLR,SKC,0.00,WeatherDisplay:10.37,2013-07-20 13:33:00,
2013-07-20 08:38:00,76.5,62.5,29.83,ESE,110,6.9,6.9,62,0.00,CLR,SKC,0.00,WeatherDisplay:10.37,2013-07-20 13:38:00,
2013-07-20 08:43:00,76.9,63.3,29.84,ESE,114,7.4,7.4,63,0.00,CLR,SKC,0.00,WeatherDisplay:10.37,2013-07-20 13:43:00,
2013-07-20 08:48:00,77.1,63.1,29.83,ESE,109,6.9,6.9,62,0.00,CLR,SKC,0.00,WeatherDisplay:10.37,2013-07-20 13:48:00,
2013-07-20 08:53:00,77.4,63.4,29.83,SE,145,2.3,2.3,62,0.00,CLR,SKC,0.00,WeatherDisplay:10.37,2013-07-20 13:53:00,
2013-07-20 08:58:00,77.8,63.3,29.83,ESE,117,6.9,6.9,61,0.00,CLR,SKC,0.00,WeatherDisplay:10.37,2013-07-20 13:58:00,
2013-07-20 09:03:00,78.1,63.6,29.83,SSE,152,5.8,5.8,61,0.00,CLR,SKC,0.00,WeatherDisplay:10.37,2013-07-20 14:03:00,
2013-07-20 09:08:00,78.5,63.9,29.84,East,89,8.5,8.5,61,0.00,CLR,SKC,0.00,WeatherDisplay:10.37,2013-07-20 14:08:00,
2013-07-20 09:13:00,78.3,63.3,29.84,SE,135,6.9,6.9,60,0.00,CLR,SKC,0.00,WeatherDisplay:10.37,2013-07-20 14:13:00,
2013-07-20 09:18:00,78.7,64.6,29.84,SSW,202,9.5,9.5,62,0.00,CLR,SKC,0.00,WeatherDisplay:10.37,2013-07-20 14:18:00,
2013-07-20 09:23:00,78.9,64.3,29.85,SE,141,6.9,6.9,61,0.00,CLR,SKC,0.00,WeatherDisplay:10.37,2013-07-20 14:23:00,
2013-07-20 09:28:00,79.0,63.0,29.84,SE,129,10.6,10.6,58,0.00,CLR,SKC,0.00,WeatherDisplay:10.37,2013-07-20 14:28:00,
2013-07-20 09:33:00,79.1,63.1,29.84,ESE,110,9.5,9.5,58,0.00,CLR,SKC,0.00,WeatherDisplay:10.37,2013-07-20 14:33:00,
2013-07-20 09:38:00,79.4,63.8,29.85,SE,128,7.4,7.4,59,0.00,CLR,SKC,0.00,WeatherDisplay:10.37,2013-07-20 14:38:00,
2013-07-20 09:43:00,79.7,64.6,29.85,ESE,111,7.4,7.4,60,0.00,CLR,SKC,0.00,WeatherDisplay:10.37,2013-07-20 14:43:00,
2013-07-20 09:48:00,80.0,63.9,29.86,ESE,113,7.4,7.4,58,0.00,CLR,SKC,0.00,WeatherDisplay:10.37,2013-07-20 14:48:00,
2013-07-20 09:53:00,80.4,64.8,29.86,ESE,115,8.5,8.5,59,0.00,CLR,SKC,0.00,WeatherDisplay:10.37,2013-07-20 14:53:00,
2013-07-20 09:58:00,80.2,65.1,29.87,ESE,108,6.4,6.4,60,0.00,CLR,SKC,0.00,WeatherDisplay:10.37,2013-07-20 14:58:00,
2013-07-20 10:03:00,79.8,64.2,29.87,East,93,7.4,7.4,59,0.00,CLR,SKC,0.00,WeatherDisplay:10.37,2013-07-20 15:03:00,
2013-07-20 10:08:00,79.5,64.4,29.86,East,91,6.9,6.9,60,0.00,CLR,SKC,0.00,WeatherDisplay:10.37,2013-07-20 15:08:00,
2013-07-20 10:13:00,79.2,63.6,29.87,East,79,7.4,7.4,59,0.00,CLR,SKC,0.00,WeatherDisplay:10.37,2013-07-20 15:13:00,
2013-07-20 10:18:00,79.6,65.0,29.87,ENE,68,5.3,5.3,61,0.00,CLR,SKC,0.00,WeatherDisplay:10.37,2013-07-20 15:18:00,
2013-07-20 10:23:00,80.0,63.4,29.88,East,100,9.2,9.2,57,0.00,CLR,SKC,0.00,WeatherDisplay:10.37,2013-07-20 15:23:00,
2013-07-20 10:28:00,80.0,63.9,29.88,ENE,75,6.9,6.9,58,0.00,CLR,SKC,0.00,WeatherDisplay:10.37,2013-07-20 15:28:00,
2013-07-20 10:33:00,79.9,64.3,29.89,ENE,58,4.6,4.6,59,0.00,CLR,SKC,0.00,WeatherDisplay:10.37,2013-07-20 15:33:00,
2013-07-20 10:38:00,80.1,65.0,29.89,East,89,2.3,2.3,60,0.00,CLR,SKC,0.00,WeatherDisplay:10.37,2013-07-20 15:38:00,
2013-07-20 10:43:00,80.2,63.6,29.89,NE,36,6.9,6.9,57,0.00,CLR,SKC,0.00,WeatherDisplay:10.37,2013-07-20 15:43:00,
2013-07-20 10:48:00,80.2,64.6,29.88,NE,53,5.3,5.3,59,0.00,CLR,SKC,0.00,WeatherDisplay:10.37,2013-07-20 15:48:00,
2013-07-20 10:53:00,80.3,65.1,29.88,ENE,57,5.3,5.3,60,0.00,CLR,SKC,0.00,WeatherDisplay:10.37,2013-07-20 15:53:00,
2013-07-20 10:58:00,80.2,64.1,29.88,NE,50,5.3,5.3,58,0.00,CLR,SKC,0.00,WeatherDisplay:10.37,2013-07-20 15:58:00,
2013-07-20 11:03:00,79.9,63.8,29.88,East,79,6.9,6.9,58,0.00,CLR,SKC,0.00,WeatherDisplay:10.37,2013-07-20 16:03:00,
2013-07-20 11:08:00,79.9,65.2,29.88,NE,40,4.6,4.6,61,0.00,CLR,SKC,0.00,WeatherDisplay:10.37,2013-07-20 16:08:00,
2013-07-20 11:13:00,80.0,64.9,29.88,ENE,60,6.9,6.9,60,0.00,CLR,SKC,0.00,WeatherDisplay:10.37,2013-07-20 16:13:00,
2013-07-20 11:18:00,79.7,64.6,29.88,ENE,75,5.8,5.8,60,0.00,CLR,SKC,0.00,WeatherDisplay:10.37,2013-07-20 16:18:00,
2013-07-20 11:23:00,79.5,64.4,29.88,NE,41,6.4,6.4,60,0.00,CLR,SKC,0.00,WeatherDisplay:10.37,2013-07-20 16:23:00,
2013-07-20 11:28:00,79.4,64.8,29.88,ENE,65,5.8,5.8,61,0.00,CLR,SKC,0.00,WeatherDisplay:10.37,2013-07-20 16:28:00,
2013-07-20 11:33:00,79.6,65.0,29.88,NE,51,6.9,6.9,61,0.00,CLR,SKC,0.00,WeatherDisplay:10.37,2013-07-20 16:33:00,
2013-07-20 11:38:00,79.6,65.0,29.88,ENE,57,5.3,5.3,61,0.00,CLR,SKC,0.00,WeatherDisplay:10.37,2013-07-20 16:38:00,
2013-07-20 11:43:00,79.6,65.4,29.88,ENE,58,5.8,5.8,62,0.00,CLR,SKC,0.00,WeatherDisplay:10.37,2013-07-20 16:43:00,
2013-07-20 11:48:00,79.6,65.4,29.88,NE,44,7.4,7.4,62,0.00,CLR,SKC,0.00,WeatherDisplay:10.37,2013-07-20 16:48:00,
2013-07-20 11:54:00,79.6,65.4,29.87,ENE,62,9.5,9.5,62,0.00,CLR,SKC,0.00,WeatherDisplay:10.37,2013-07-20 16:54:00,
2013-07-20 11:59:00,79.6,65.9,29.87,NE,40,8.5,8.5,63,0.00,CLR,SKC,0.00,WeatherDisplay:10.37,2013-07-20 16:59:00,
2013-07-20 12:04:00,79.7,65.5,29.87,ENE,70,11.5,11.5,62,0.00,CLR,SKC,0.00,WeatherDisplay:10.37,2013-07-20 17:04:00,
2013-07-20 12:09:00,79.9,66.2,29.86,NNE,29,6.9,6.9,63,0.00,CLR,SKC,0.00,WeatherDisplay:10.37,2013-07-20 17:09:00,
2013-07-20 12:14:00,80.3,66.1,29.86,NE,53,9.5,9.5,62,0.00,CLR,SKC,0.00,WeatherDisplay:10.37,2013-07-20 17:14:00,
2013-07-20 12:19:00,80.9,65.7,29.86,NNE,15,9.5,9.5,60,0.00,CLR,SKC,0.00,WeatherDisplay:10.37,2013-07-20 17:19:00,
2013-07-20 12:24:00,80.8,66.6,29.85,NE,51,9.2,9.2,62,0.00,CLR,SKC,0.00,WeatherDisplay:10.37,2013-07-20 17:24:00,
2013-07-20 12:29:00,80.9,66.7,29.86,ENE,66,6.9,6.9,62,0.00,CLR,SKC,0.00,WeatherDisplay:10.37,2013-07-20 17:29:00,
2013-07-20 12:34:00,81.4,66.2,29.86,ENE,66,9.5,9.5,60,0.00,CLR,SKC,0.00,WeatherDisplay:10.37,2013-07-20 17:34:00,
2013-07-20 12:39:00,81.3,67.5,29.86,East,79,4.6,4.6,63,0.00,CLR,SKC,0.00,WeatherDisplay:10.37,2013-07-20 17:39:00,
2013-07-20 12:44:00,81.4,66.2,29.86,NE,49,9.5,9.5,60,0.00,CLR,SKC,0.00,WeatherDisplay:10.37,2013-07-20 17:44:00,
2013-07-20 12:49:00,81.3,67.0,29.86,ENE,72,5.3,5.3,62,0.00,CLR,SKC,0.00,WeatherDisplay:10.37,2013-07-20 17:49:00,
2013-07-20 12:54:00,81.4,67.1,29.85,ENE,57,9.2,9.2,62,0.00,CLR,SKC,0.00,WeatherDisplay:10.37,2013-07-20 17:54:00,
2013-07-20 12:59:00,82.2,67.4,29.86,NE,49,6.4,6.4,61,0.00,CLR,SKC,0.00,WeatherDisplay:10.37,2013-07-20 17:59:00,
2013-07-20 13:04:00,82.3,68.4,29.86,NE,47,6.9,6.9,63,0.00,CLR,SKC,0.00,WeatherDisplay:10.37,2013-07-20 18:04:00,
2013-07-20 13:09:00,82.1,66.8,29.86,NNE,32,6.9,6.9,60,0.00,CLR,SKC,0.00,WeatherDisplay:10.37,2013-07-20 18:09:00,
2013-07-20 13:14:00,81.9,67.1,29.86,East,86,5.8,5.8,61,0.00,CLR,SKC,0.00,WeatherDisplay:10.37,2013-07-20 18:14:00,
2013-07-20 13:19:00,82.3,68.0,29.87,NE,50,5.3,5.3,62,0.00,CLR,SKC,0.00,WeatherDisplay:10.37,2013-07-20 18:19:00,
2013-07-20 13:24:00,83.2,67.4,29.87,East,81,8.5,8.5,59,0.00,CLR,SKC,0.00,WeatherDisplay:10.37,2013-07-20 18:24:00,
2013-07-20 13:29:00,83.0,66.7,29.87,ENE,71,6.9,6.9,58,0.00,CLR,SKC,0.00,WeatherDisplay:10.37,2013-07-20 18:29:00,
2013-07-20 13:35:00,83.6,65.2,29.86,NNE,28,4.2,4.2,54,0.00,CLR,SKC,0.00,WeatherDisplay:10.37,2013-07-20 18:35:00,
2013-07-20 13:40:00,84.0,66.1,29.86,ESE,113,6.9,6.9,55,0.00,CLR,SKC,0.00,WeatherDisplay:10.37,2013-07-20 18:40:00,
2013-07-20 13:45:00,83.9,66.0,29.85,ESE,108,10.6,10.6,55,0.00,CLR,SKC,0.00,WeatherDisplay:10.37,2013-07-20 18:45:00,
2013-07-20 13:51:00,84.0,62.8,29.85,NE,50,9.5,9.5,49,0.00,CLR,SKC,0.00,WeatherDisplay:10.37,2013-07-20 18:51:00,
2013-07-20 13:56:00,83.6,61.8,29.84,ENE,77,9.2,9.2,48,0.00,CLR,SKC,0.00,WeatherDisplay:10.37,2013-07-20 18:56:00,
2013-07-20 14:01:00,83.4,62.2,29.85,ENE,77,6.9,6.9,49,0.00,CLR,SKC,0.00,WeatherDisplay:10.37,2013-07-20 19:01:00,
2013-07-20 14:06:00,83.0,60.7,29.85,ENE,62,6.4,6.4,47,0.00,CLR,SKC,0.00,WeatherDisplay:10.37,2013-07-20 19:06:00,
2013-07-20 14:12:00,82.7,62.7,29.85,ENE,69,4.6,4.6,51,0.00,CLR,SKC,0.00,WeatherDisplay:10.37,2013-07-20 19:12:00,
2013-07-20 14:17:00,82.5,61.4,29.85,East,82,6.9,6.9,49,0.00,CLR,SKC,0.00,WeatherDisplay:10.37,2013-07-20 19:17:00,
2013-07-20 14:22:00,82.2,61.7,29.85,SE,126,3.5,3.5,50,0.00,CLR,SKC,0.00,WeatherDisplay:10.37,2013-07-20 19:22:00,
2013-07-20 14:27:00,81.9,63.1,29.85,ESE,120,5.3,5.3,53,0.00,CLR,SKC,0.00,WeatherDisplay:10.37,2013-07-20 19:27:00,
2013-07-20 14:32:00,81.6,62.3,29.84,East,98,4.6,4.6,52,0.00,CLR,SKC,0.00,WeatherDisplay:10.37,2013-07-20 19:32:00,
2013-07-20 14:38:00,81.4,63.2,29.84,East,95,4.6,4.6,54,0.00,CLR,SKC,0.00,WeatherDisplay:10.37,2013-07-20 19:38:00,
2013-07-20 14:43:00,81.1,63.9,29.83,East,96,5.8,5.8,56,0.00,CLR,SKC,0.00,WeatherDisplay:10.37,2013-07-20 19:43:00,
2013-07-20 14:48:00,81.1,64.4,29.83,East,98,4.6,4.6,57,0.00,CLR,SKC,0.00,WeatherDisplay:10.37,2013-07-20 19:48:00,
2013-07-20 14:53:00,81.0,64.8,29.83,East,96,3.5,3.5,58,0.00,CLR,SKC,0.00,WeatherDisplay:10.37,2013-07-20 19:53:00,
2013-07-20 14:58:00,80.9,63.2,29.83,ESE,110,4.6,4.6,55,0.00,CLR,SKC,0.00,WeatherDisplay:10.37,2013-07-20 19:58:00,
2013-07-20 15:03:00,80.9,64.2,29.83,East,95,4.6,4.6,57,0.00,CLR,SKC,0.00,WeatherDisplay:10.37,2013-07-20 20:03:00,
2013-07-20 15:09:00,81.1,64.4,29.83,SSE,148,3.5,3.5,57,0.00,CLR,SKC,0.00,WeatherDisplay:10.37,2013-07-20 20:09:00,
2013-07-20 15:14:00,81.4,65.2,29.83,SSE,150,2.3,2.3,58,0.00,CLR,SKC,0.00,WeatherDisplay:10.37,2013-07-20 20:14:00,
2013-07-20 15:19:00,82.0,66.3,29.82,SSE,156,7.4,7.4,59,0.00,CLR,SKC,0.00,WeatherDisplay:10.37,2013-07-20 20:19:00,
2013-07-20 15:25:00,82.3,66.0,29.82,SSE,163,8.5,8.5,58,0.00,CLR,SKC,0.00,WeatherDisplay:10.37,2013-07-20 20:25:00,
2013-07-20 15:30:00,82.4,65.6,29.82,SE,137,8.5,8.5,57,0.00,CLR,SKC,0.00,WeatherDisplay:10.37,2013-07-20 20:30:00,
2013-07-20 15:36:00,82.3,65.5,29.82,SSE,152,9.5,9.5,57,0.00,CLR,SKC,0.00,WeatherDisplay:10.37,2013-07-20 20:36:00,
2013-07-20 15:41:00,82.2,66.0,29.82,East,79,6.4,6.4,58,0.00,CLR,SKC,0.00,WeatherDisplay:10.37,2013-07-20 20:41:00,
2013-07-20 15:46:00,82.0,65.3,29.82,ESE,120,7.4,7.4,57,0.00,CLR,SKC,0.00,WeatherDisplay:10.37,2013-07-20 20:46:00,
2013-07-20 15:52:00,81.9,66.2,29.82,SE,137,8.1,8.1,59,0.00,CLR,SKC,0.00,WeatherDisplay:10.37,2013-07-20 20:52:00,
2013-07-20 15:57:00,82.1,66.4,29.82,ESE,103,5.8,5.8,59,0.00,CLR,SKC,0.00,WeatherDisplay:10.37,2013-07-20 20:57:00,
2013-07-20 16:02:00,82.1,66.4,29.82,SE,127,7.4,7.4,59,0.00,CLR,SKC,0.00,WeatherDisplay:10.37,2013-07-20 21:02:00,
2013-07-20 16:08:00,82.5,66.7,29.82,SSE,150,8.5,8.5,59,0.00,CLR,SKC,0.00,WeatherDisplay:10.37,2013-07-20 21:08:00,
2013-07-20 16:13:00,82.3,67.5,29.82,SSE,148,7.4,7.4,61,0.00,CLR,SKC,0.00,WeatherDisplay:10.37,2013-07-20 21:13:00,
2013-07-20 16:18:00,82.4,66.1,29.82,SE,136,8.5,8.5,58,0.00,CLR,SKC,0.00,WeatherDisplay:10.37,2013-07-20 21:18:00,
2013-07-20 16:24:00,82.4,64.6,29.82,SE,141,9.2,9.2,55,0.00,CLR,SKC,0.00,WeatherDisplay:10.37,2013-07-20 21:24:00,
2013-07-20 16:29:00,82.8,66.5,29.82,SSE,153,8.5,8.5,58,0.00,CLR,SKC,0.00,WeatherDisplay:10.37,2013-07-20 21:29:00,
2013-07-20 16:34:00,83.5,66.7,29.82,East,100,8.5,8.5,57,0.00,CLR,SKC,0.00,WeatherDisplay:10.37,2013-07-20 21:34:00,
2013-07-20 16:39:00,83.7,66.3,29.82,SE,127,8.5,8.5,56,0.00,CLR,SKC,0.00,WeatherDisplay:10.37,2013-07-20 21:39:00,
2013-07-20 16:44:00,84.0,66.6,29.82,SSE,153,8.5,8.5,56,0.00,CLR,SKC,0.00,WeatherDisplay:10.37,2013-07-20 21:44:00,
2013-07-20 16:49:00,84.3,66.9,29.82,SE,146,5.0,8.0,56,0.00,CLR,SKC,0.00,WeatherDisplay:10.37,2013-07-20 21:49:00,
2013-07-20 16:54:00,84.5,66.0,29.81,SE,126,7.4,7.4,54,0.00,CLR,SKC,0.00,WeatherDisplay:10.37,2013-07-20 21:54:00,
2013-07-20 17:00:00,84.3,66.4,29.80,SE,127,8.5,8.5,55,0.00,CLR,SKC,0.00,WeatherDisplay:10.37,2013-07-20 22:00:00,
2013-07-20 17:05:00,84.4,67.0,29.80,ENE,77,6.9,6.9,56,0.00,CLR,SKC,0.00,WeatherDisplay:10.37,2013-07-20 22:05:00,
2013-07-20 17:11:00,84.1,66.2,29.80,ESE,117,6.9,6.9,55,0.00,CLR,SKC,0.00,WeatherDisplay:10.37,2013-07-20 22:11:00,
2013-07-20 17:17:00,84.2,65.8,29.80,ESE,115,8.5,8.5,54,0.00,CLR,SKC,0.00,WeatherDisplay:10.37,2013-07-20 22:17:00,
2013-07-20 17:22:00,84.0,66.6,29.80,ESE,122,4.6,4.6,56,0.00,CLR,SKC,0.00,WeatherDisplay:10.37,2013-07-20 22:22:00,
2013-07-20 17:28:00,84.1,65.7,29.80,NE,50,9.5,9.5,54,0.00,CLR,SKC,0.00,WeatherDisplay:10.37,2013-07-20 22:28:00,
2013-07-20 17:33:00,83.8,66.4,29.79,NE,52,7.4,7.4,56,0.00,CLR,SKC,0.00,WeatherDisplay:10.37,2013-07-20 22:33:00,
2013-07-20 17:38:00,83.9,66.5,29.79,ESE,112,6.9,6.9,56,0.00,CLR,SKC,0.00,WeatherDisplay:10.37,2013-07-20 22:38:00,
2013-07-20 17:43:00,84.1,67.2,29.79,East,88,7.4,7.4,57,0.00,CLR,SKC,0.00,WeatherDisplay:10.37,2013-07-20 22:43:00,
2013-07-20 17:48:00,84.1,67.2,29.79,ENE,78,8.1,8.1,57,0.00,CLR,SKC,0.00,WeatherDisplay:10.37,2013-07-20 22:48:00,
2013-07-20 17:53:00,84.5,67.6,29.79,East,81,6.9,6.9,57,0.00,CLR,SKC,0.00,WeatherDisplay:10.37,2013-07-20 22:53:00,
2013-07-20 17:59:00,84.6,67.2,29.79,East,101,7.4,7.4,56,0.00,CLR,SKC,0.00,WeatherDisplay:10.37,2013-07-20 22:59:00,
2013-07-20 18:04:00,84.6,67.7,29.79,SE,129,9.5,9.5,57,0.00,CLR,SKC,0.00,WeatherDisplay:10.37,2013-07-20 23:04:00,
2013-07-20 18:09:00,84.6,67.2,29.79,ESE,104,9.2,9.2,56,0.00,CLR,SKC,0.00,WeatherDisplay:10.37,2013-07-20 23:09:00,
2013-07-20 18:15:00,84.3,65.8,29.79,ESE,115,8.5,8.5,54,0.00,CLR,SKC,0.00,WeatherDisplay:10.37,2013-07-20 23:15:00,
2013-07-20 18:20:00,84.3,65.8,29.79,East,88,10.6,10.6,54,0.00,CLR,SKC,0.00,WeatherDisplay:10.37,2013-07-20 23:20:00,
2013-07-20 18:25:00,84.1,65.7,29.79,ESE,108,8.5,8.5,54,0.00,CLR,SKC,0.00,WeatherDisplay:10.37,2013-07-20 23:25:00,
2013-07-20 18:30:00,84.0,67.1,29.79,SSE,160,9.5,9.5,57,0.00,CLR,SKC,0.00,WeatherDisplay:10.37,2013-07-20 23:30:00,
2013-07-20 18:36:00,83.8,66.9,29.79,SE,140,10.6,10.6,57,0.00,CLR,SKC,0.00,WeatherDisplay:10.37,2013-07-20 23:36:00,
2013-07-20 18:41:00,83.9,67.5,29.79,SE,134,6.9,6.9,58,0.00,CLR,SKC,0.00,WeatherDisplay:10.37,2013-07-20 23:41:00,
2013-07-20 18:46:00,83.8,67.4,29.78,ESE,105,8.5,8.5,58,0.00,CLR,SKC,0.00,WeatherDisplay:10.37,2013-07-20 23:46:00,
2013-07-20 18:51:00,83.6,67.8,29.78,SE,139,7.4,7.4,59,0.00,CLR,SKC,0.00,WeatherDisplay:10.37,2013-07-20 23:51:00,
2013-07-20 18:56:00,83.5,67.7,29.77,SSE,154,6.9,6.9,59,0.00,CLR,SKC,0.00,WeatherDisplay:10.37,2013-07-20 23:56:00,
2013-07-20 19:01:00,83.5,68.2,29.77,SSE,157,5.8,5.8,60,0.00,CLR,SKC,0.00,WeatherDisplay:10.37,2013-07-21 00:01:00,
2013-07-20 19:07:00,83.4,68.1,29.77,East,99,6.4,6.4,60,0.00,CLR,SKC,0.00,WeatherDisplay:10.37,2013-07-21 00:07:00,
2013-07-20 19:12:00,83.5,68.2,29.77,SE,127,4.6,4.6,60,0.00,CLR,SKC,0.00,WeatherDisplay:10.37,2013-07-21 00:12:00,
2013-07-20 19:17:00,83.3,68.4,29.77,ESE,122,6.9,6.9,61,0.00,CLR,SKC,0.00,WeatherDisplay:10.37,2013-07-21 00:17:00,
2013-07-20 19:22:00,83.1,68.7,29.77,ESE,122,5.8,5.8,62,0.00,CLR,SKC,0.00,WeatherDisplay:10.37,2013-07-21 00:22:00,
2013-07-20 19:27:00,83.2,68.3,29.77,South,175,5.8,5.8,61,0.00,CLR,SKC,0.00,WeatherDisplay:10.37,2013-07-21 00:27:00,
2013-07-20 19:32:00,83.0,68.2,29.76,SE,137,3.5,3.5,61,0.00,CLR,SKC,0.00,WeatherDisplay:10.37,2013-07-21 00:32:00,
2013-07-20 19:38:00,82.8,68.4,29.76,SE,124,5.8,5.8,62,0.00,CLR,SKC,0.00,WeatherDisplay:10.37,2013-07-21 00:38:00,
2013-07-20 19:43:00,82.3,68.0,29.76,ESE,117,4.6,4.6,62,0.00,CLR,SKC,0.00,WeatherDisplay:10.37,2013-07-21 00:43:00,
2013-07-20 19:49:00,82.1,68.7,29.76,ESE,107,4.6,4.6,64,0.00,CLR,SKC,0.00,WeatherDisplay:10.37,2013-07-21 00:49:00,
2013-07-20 19:54:00,81.8,68.0,29.77,SE,131,6.4,6.4,63,0.00,CLR,SKC,0.00,WeatherDisplay:10.37,2013-07-21 00:54:00,
2013-07-20 19:59:00,81.7,68.3,29.77,ESE,110,5.8,5.8,64,0.00,CLR,SKC,0.00,WeatherDisplay:10.37,2013-07-21 00:59:00,
2013-07-20 20:05:00,81.5,68.1,29.76,ESE,118,5.3,5.3,64,0.00,CLR,SKC,0.00,WeatherDisplay:10.37,2013-07-21 01:05:00,
2013-07-20 20:10:00,80.9,68.0,29.76,ESE,118,3.5,3.5,65,0.00,CLR,SKC,0.00,WeatherDisplay:10.37,2013-07-21 01:10:00,
2013-07-20 20:15:00,80.5,68.5,29.77,ESE,122,3.5,3.5,67,0.00,CLR,SKC,0.00,WeatherDisplay:10.37,2013-07-21 01:15:00,
2013-07-20 20:20:00,80.1,68.6,29.77,SE,141,2.3,2.3,68,0.00,CLR,SKC,0.00,WeatherDisplay:10.37,2013-07-21 01:20:00,
2013-07-20 20:25:00,79.8,68.7,29.77,East,96,3.5,3.5,69,0.00,CLR,SKC,0.00,WeatherDisplay:10.37,2013-07-21 01:25:00,
2013-07-20 20:31:00,79.4,68.8,29.77,SE,142,4.6,4.6,70,0.00,CLR,SKC,0.00,WeatherDisplay:10.37,2013-07-21 01:31:00,
2013-07-20 20:36:00,79.0,68.8,29.77,SE,131,5.8,5.8,71,0.00,CLR,SKC,0.00,WeatherDisplay:10.37,2013-07-21 01:36:00,
2013-07-20 20:41:00,78.6,68.8,29.77,East,95,4.6,4.6,72,0.00,CLR,SKC,0.00,WeatherDisplay:10.37,2013-07-21 01:41:00,
2013-07-20 20:46:00,78.2,68.8,29.77,SE,132,3.2,3.2,73,0.00,CLR,SKC,0.00,WeatherDisplay:10.37,2013-07-21 01:46:00,
2013-07-20 20:51:00,77.7,68.7,29.77,SE,134,3.2,3.2,74,0.00,CLR,SKC,0.00,WeatherDisplay:10.37,2013-07-21 01:51:00,
2013-07-20 20:57:00,77.2,68.7,29.78,ESE,110,3.5,3.5,75,0.00,CLR,SKC,0.00,WeatherDisplay:10.37,2013-07-21 01:57:00,
2013-07-20 21:02:00,76.8,68.7,29.78,ESE,112,2.3,2.3,76,0.00,CLR,SKC,0.00,WeatherDisplay:10.37,2013-07-21 02:02:00,
2013-07-20 21:08:00,76.5,68.7,29.79,ESE,116,2.3,2.3,77,0.00,CLR,SKC,0.00,WeatherDisplay:10.37,2013-07-21 02:08:00,
2013-07-20 21:13:00,76.4,68.7,29.79,ESE,116,1.1,1.1,77,0.00,CLR,SKC,0.00,WeatherDisplay:10.37,2013-07-21 02:13:00,
2013-07-20 21:19:00,76.1,68.7,29.80,ESE,114,1.2,0.0,78,0.00,CLR,SKC,0.00,WeatherDisplay:10.37,2013-07-21 02:19:00,
2013-07-20 21:24:00,75.9,68.5,29.80,East,97,1.2,1.2,78,0.00,CLR,SKC,0.00,WeatherDisplay:10.37,2013-07-21 02:24:00,
2013-07-20 21:29:00,75.6,68.6,29.80,East,86,1.2,1.2,79,0.00,CLR,SKC,0.00,WeatherDisplay:10.37,2013-07-21 02:29:00,
2013-07-20 21:34:00,75.6,68.6,29.81,East,86,0.0,0.0,79,0.00,CLR,SKC,0.00,WeatherDisplay:10.37,2013-07-21 02:34:00,
2013-07-20 21:39:00,75.7,68.7,29.81,East,86,0.0,0.0,79,0.00,CLR,SKC,0.00,WeatherDisplay:10.37,2013-07-21 02:39:00,
2013-07-20 21:45:00,75.7,68.7,29.82,East,86,0.0,0.0,79,0.00,CLR,SKC,0.00,WeatherDisplay:10.37,2013-07-21 02:45:00,
2013-07-20 21:50:00,75.6,68.6,29.82,SSE,168,2.3,2.3,79,0.00,CLR,SKC,0.00,WeatherDisplay:10.37,2013-07-21 02:50:00,
2013-07-20 21:56:00,75.5,68.5,29.82,SE,129,1.2,1.2,79,0.00,CLR,SKC,0.00,WeatherDisplay:10.37,2013-07-21 02:56:00,
2013-07-20 22:01:00,75.2,68.6,29.82,SSE,154,2.3,2.3,80,0.00,CLR,SKC,0.00,WeatherDisplay:10.37,2013-07-21 03:01:00,
2013-07-20 22:07:00,74.9,68.7,29.83,SSE,158,1.2,1.2,81,0.00,CLR,SKC,0.00,WeatherDisplay:10.37,2013-07-21 03:07:00,
2013-07-20 22:12:00,74.5,68.6,29.83,SE,146,0.0,0.0,82,0.00,CLR,SKC,0.00,WeatherDisplay:10.37,2013-07-21 03:12:00,
2013-07-20 22:17:00,74.1,68.6,29.83,SSE,150,0.0,0.0,83,0.00,CLR,SKC,0.00,WeatherDisplay:10.37,2013-07-21 03:17:00,
2013-07-20 22:22:00,73.9,68.4,29.83,SSE,149,0.0,0.0,83,0.00,CLR,SKC,0.00,WeatherDisplay:10.37,2013-07-21 03:22:00,
2013-07-20 22:27:00,73.7,68.2,29.83,SE,134,2.1,2.1,83,0.00,CLR,SKC,0.00,WeatherDisplay:10.37,2013-07-21 03:27:00,
2013-07-20 22:33:00,73.5,68.0,29.83,SE,136,1.2,1.2,83,0.00,CLR,SKC,0.00,WeatherDisplay:10.37,2013-07-21 03:33:00,
2013-07-20 22:38:00,73.3,67.5,29.83,SE,124,1.2,0.0,82,0.00,CLR,SKC,0.00,WeatherDisplay:10.37,2013-07-21 03:38:00,
2013-07-20 22:43:00,73.4,67.6,29.83,SE,134,1.2,0.0,82,0.00,CLR,SKC,0.00,WeatherDisplay:10.37,2013-07-21 03:43:00,
2013-07-20 22:49:00,73.4,67.6,29.83,SSE,165,0.0,0.0,82,0.00,CLR,SKC,0.00,WeatherDisplay:10.37,2013-07-21 03:49:00,
2013-07-20 22:54:00,73.4,67.6,29.84,SSE,165,0.0,0.0,82,0.00,CLR,SKC,0.00,WeatherDisplay:10.37,2013-07-21 03:54:00,
2013-07-20 22:59:00,73.4,67.6,29.83,SSE,164,0.0,0.0,82,0.00,CLR,SKC,0.00,WeatherDisplay:10.37,2013-07-21 03:59:00,
2013-07-20 23:01:00,73.5,67.7,29.83,SSE,165,0.0,0.0,82,0.00,CLR,SKC,0.00,WeatherDisplay:10.37,2013-07-21 04:01:00,
2013-07-20 23:06:00,73.5,67.7,29.83,SSE,164,0.0,0.0,82,0.00,CLR,SKC,0.00,WeatherDisplay:10.37,2013-07-21 04:06:00,
2013-07-20 23:11:00,73.4,67.6,29.83,SSE,164,0.0,0.0,82,0.00,CLR,SKC,0.00,WeatherDisplay:10.37,2013-07-21 04:11:00,
2013-07-20 23:17:00,73.3,67.8,29.83,SSE,162,0.0,0.0,83,0.00,CLR,SKC,0.00,WeatherDisplay:10.37,2013-07-21 04:17:00,
2013-07-20 23:22:00,73.3,67.8,29.83,SSE,162,0.0,0.0,83,0.00,CLR,SKC,0.00,WeatherDisplay:10.37,2013-07-21 04:22:00,
2013-07-20 23:27:00,73.2,67.7,29.83,SSE,162,0.0,0.0,83,0.00,CLR,SKC,0.00,WeatherDisplay:10.37,2013-07-21 04:27:00,
2013-07-20 23:32:00,73.1,67.6,29.83,SSE,162,0.0,0.0,83,0.00,CLR,SKC,0.00,WeatherDisplay:10.37,2013-07-21 04:32:00,
2013-07-20 23:37:00,73.1,68.0,29.83,SSE,162,0.0,0.0,84,0.00,CLR,SKC,0.00,WeatherDisplay:10.37,2013-07-21 04:37:00,
2013-07-20 23:42:00,73.1,68.0,29.83,SSE,162,0.0,0.0,84,0.00,CLR,SKC,0.00,WeatherDisplay:10.37,2013-07-21 04:42:00,
2013-07-20 23:47:00,73.1,68.0,29.83,SSE,162,0.0,0.0,84,0.00,CLR,SKC,0.00,WeatherDisplay:10.37,2013-07-21 04:47:00,
2013-07-20 23:52:00,73.2,68.1,29.82,SSE,162,0.0,0.0,84,0.00,CLR,SKC,0.00,WeatherDisplay:10.37,2013-07-21 04:52:00,
2013-07-20 23:57:00,73.2,68.1,29.82,SE,144,0.0,0.0,84,0.00,CLR,SKC,0.00,WeatherDisplay:10.37,2013-07-21 04:57:00,